Time;durP1;ratioP1;P1;durP2;ratioP2;P2;SDS_P1;SDS_P2;PMS_P1;PMS_P2;Temp;Humidity;BMP_temperature;BMP_pressure;BME280_temperature;BME280_humidity;BME280_pressure;Samples;Min_cycle;Max_cycle;Signal;HPM_P1;HPM_P2
2021/07/01 00:00:37;;;;;;;17.23;6.78;;;15.30;99.90;;;;;;10435179;28;20470;-69
2021/07/01 00:05:41;;;;;;;11.90;6.10;;;15.30;99.90;;;;;;10428113;28;20049;-69
2021/07/01 00:10:43;;;;;;;10.38;5.38;;;15.30;99.90;;;;;;10431636;28;20076;-69
2021/07/01 00:15:45;;;;;;;11.07;5.93;;;15.20;99.90;;;;;;10434855;28;20072;-68
2021/07/01 00:20:46;;;;;;;15.18;6.55;;;15.20;99.90;;;;;;10429657;28;20080;-68
2021/07/01 00:25:48;;;;;;;15.18;6.35;;;15.20;99.90;;;;;;10429631;28;20080;-69
2021/07/01 00:30:50;;;;;;;9.93;5.30;;;15.20;99.90;;;;;;10431427;28;20087;-68
2021/07/01 00:35:51;;;;;;;10.43;5.53;;;15.20;99.90;;;;;;10432180;28;20126;-68
2021/07/01 00:40:53;;;;;;;11.98;5.90;;;15.10;99.90;;;;;;10428823;28;20050;-67
2021/07/01 00:45:55;;;;;;;8.63;5.10;;;15.20;99.90;;;;;;10432354;28;20103;-69
2021/07/01 00:50:57;;;;;;;9.68;5.82;;;15.20;99.90;;;;;;10428767;28;20099;-69
2021/07/01 00:56:00;;;;;;;9.95;4.35;;;15.10;99.90;;;;;;10431029;28;20044;-69
2021/07/01 01:01:02;;;;;;;7.85;3.17;;;15.10;99.90;;;;;;10425420;28;20057;-68
2021/07/01 01:06:05;;;;;;;6.70;3.90;;;15.10;99.90;;;;;;10428468;28;20067;-69
2021/07/01 01:11:07;;;;;;;6.15;2.97;;;15.10;99.90;;;;;;10429630;28;20131;-69
2021/07/01 01:16:08;;;;;;;7.50;3.17;;;15.00;99.90;;;;;;10428391;28;20041;-69
2021/07/01 01:21:28;;;;;;;7.25;3.17;;;15.00;99.90;;;;;;10426149;28;20059;-69
2021/07/01 01:26:30;;;;;;;6.85;2.72;;;15.00;99.90;;;;;;10430867;28;20142;-69
2021/07/01 01:31:32;;;;;;;6.15;3.03;;;15.00;99.90;;;;;;10432399;28;20037;-69
2021/07/01 01:36:34;;;;;;;9.88;2.60;;;15.00;99.90;;;;;;10426878;28;20053;-70
2021/07/01 01:41:36;;;;;;;8.18;2.25;;;15.10;99.90;;;;;;10428327;28;20106;-68
2021/07/01 01:46:39;;;;;;;5.25;1.85;;;15.00;99.90;;;;;;10429052;28;20110;-68
2021/07/01 01:51:41;;;;;;;2.70;1.58;;;15.00;99.90;;;;;;10426942;28;20609;-68
2021/07/01 01:56:46;;;;;;;2.45;1.20;;;14.90;99.90;;;;;;10426326;28;20060;-67
2021/07/01 02:01:52;;;;;;;2.40;1.45;;;14.90;99.90;;;;;;10424791;28;20044;-67
2021/07/01 02:06:55;;;;;;;4.07;1.52;;;14.90;99.90;;;;;;10428208;28;20037;-67
2021/07/01 02:11:56;;;;;;;6.60;1.77;;;14.90;99.90;;;;;;10422897;28;20041;-67
2021/07/01 02:16:58;;;;;;;2.88;1.63;;;14.90;99.90;;;;;;10428077;28;20114;-67
2021/07/01 02:22:00;;;;;;;2.80;0.90;;;14.90;99.90;;;;;;10426016;28;20053;-67
2021/07/01 02:27:01;;;;;;;1.83;1.08;;;14.90;99.90;;;;;;10428231;28;20102;-67
2021/07/01 02:32:04;;;;;;;1.20;0.60;;;14.90;99.90;;;;;;10427673;28;20126;-67
2021/07/01 02:37:07;;;;;;;1.92;0.70;;;14.90;99.90;;;;;;10426844;28;20549;-67
2021/07/01 02:42:09;;;;;;;1.30;0.60;;;14.80;99.90;;;;;;10423272;28;20110;-66
2021/07/01 02:47:11;;;;;;;3.38;0.60;;;14.80;99.90;;;;;;10425609;28;20049;-66
2021/07/01 02:52:12;;;;;;;5.90;0.85;;;14.70;99.90;;;;;;10424559;28;20048;-66
2021/07/01 02:57:14;;;;;;;2.90;0.82;;;14.80;99.90;;;;;;10427575;28;20048;-66
2021/07/01 03:02:16;;;;;;;2.97;0.90;;;14.60;99.90;;;;;;10426451;28;20041;-65
2021/07/01 03:07:18;;;;;;;2.08;0.70;;;14.60;99.90;;;;;;10425443;28;20055;-65
2021/07/01 03:12:20;;;;;;;1.65;1.00;;;14.60;99.90;;;;;;10424583;28;20110;-65
2021/07/01 03:17:21;;;;;;;3.63;1.17;;;14.70;99.90;;;;;;10427340;28;20110;-65
2021/07/01 03:22:23;;;;;;;3.22;1.67;;;14.70;99.90;;;;;;10429252;28;20076;-65
2021/07/01 03:27:25;;;;;;;3.10;2.03;;;14.70;99.90;;;;;;10452148;28;20106;-65
2021/07/01 03:32:26;;;;;;;6.38;2.70;;;14.60;99.90;;;;;;10433849;28;20054;-65
2021/07/01 03:37:28;;;;;;;9.45;4.55;;;14.60;99.90;;;;;;10432274;28;20048;-65
2021/07/01 03:42:30;;;;;;;11.88;5.00;;;14.50;99.90;;;;;;10433347;28;20110;-65
2021/07/01 03:47:32;;;;;;;7.80;5.05;;;14.50;99.90;;;;;;10430435;28;20056;-65
2021/07/01 03:52:34;;;;;;;9.15;5.38;;;14.50;99.90;;;;;;10431954;28;20060;-65
2021/07/01 03:57:35;;;;;;;7.70;4.32;;;14.40;99.90;;;;;;10421123;28;20360;-64
2021/07/01 04:02:39;;;;;;;8.60;4.93;;;14.50;99.90;;;;;;10431852;28;20056;-65
2021/07/01 04:07:41;;;;;;;7.40;3.60;;;14.40;99.90;;;;;;10432206;28;20044;-66
2021/07/01 04:12:42;;;;;;;7.03;4.00;;;14.50;99.90;;;;;;10432586;28;20045;-66
2021/07/01 04:17:44;;;;;;;14.52;4.85;;;14.50;99.90;;;;;;10429733;28;20056;-65
2021/07/01 04:22:46;;;;;;;9.57;5.43;;;14.60;99.90;;;;;;10430450;28;20049;-65
2021/07/01 04:27:48;;;;;;;7.60;4.50;;;14.70;99.90;;;;;;10431044;28;20103;-65
2021/07/01 04:32:49;;;;;;;8.73;5.07;;;14.60;99.90;;;;;;10426576;28;20057;-65
2021/07/01 04:37:51;;;;;;;9.45;5.60;;;14.60;99.90;;;;;;10425765;28;20049;-65
2021/07/01 04:42:53;;;;;;;10.57;6.13;;;14.50;99.90;;;;;;10429303;28;20048;-65
2021/07/01 04:47:54;;;;;;;9.68;4.90;;;14.50;99.90;;;;;;10428194;28;20053;-65
2021/07/01 04:52:56;;;;;;;8.95;5.28;;;14.50;99.90;;;;;;10427597;28;20137;-65
2021/07/01 04:57:58;;;;;;;13.43;6.68;;;14.50;99.90;;;;;;10428513;28;20110;-66
2021/07/01 05:02:59;;;;;;;8.77;4.28;;;14.60;99.90;;;;;;10426384;28;20053;-65
2021/07/01 05:08:01;;;;;;;8.43;3.45;;;14.60;99.90;;;;;;10424318;28;20049;-65
2021/07/01 05:18:06;;;;;;;5.03;3.00;;;14.60;99.90;;;;;;10355063;27;20421;-64
2021/07/01 05:23:08;;;;;;;7.10;3.42;;;14.70;99.90;;;;;;10364283;28;20143;-64
2021/07/01 05:28:11;;;;;;;5.95;3.00;;;14.70;99.90;;;;;;10362998;28;20092;-66
2021/07/01 05:33:15;;;;;;;4.78;2.90;;;14.60;99.90;;;;;;10367314;28;20057;-65
2021/07/01 05:38:17;;;;;;;4.03;2.83;;;14.60;99.90;;;;;;10380024;28;20045;-65
2021/07/01 05:43:18;;;;;;;3.10;2.00;;;14.60;99.90;;;;;;10421574;28;20053;-65
2021/07/01 05:48:22;;;;;;;3.95;2.08;;;14.60;99.90;;;;;;10418030;28;20045;-65
2021/07/01 05:53:55;;;;;;;4.97;2.33;;;14.60;99.90;;;;;;10421725;28;21610;-65
2021/07/01 05:58:46;;;;;;;6.13;2.10;;;14.60;99.90;;;;;;10415327;28;20111;-65
2021/07/01 06:03:48;;;;;;;7.53;2.95;;;14.50;99.90;;;;;;10418535;28;20049;-65
2021/07/01 06:08:50;;;;;;;3.22;1.48;;;14.50;99.90;;;;;;10419523;28;20353;-65
2021/07/01 06:13:53;;;;;;;4.43;2.30;;;14.40;99.90;;;;;;10419000;28;20053;-65
2021/07/01 06:18:55;;;;;;;2.50;1.30;;;14.40;99.90;;;;;;10418045;28;20138;-65
2021/07/01 06:23:57;;;;;;;2.08;1.10;;;14.40;99.90;;;;;;10417657;28;20107;-65
2021/07/01 06:28:59;;;;;;;5.03;1.30;;;14.40;99.90;;;;;;10395377;28;20045;-64
2021/07/01 06:34:01;;;;;;;0.60;0.38;;;14.40;99.90;;;;;;10393312;28;20212;-64
2021/07/01 06:39:06;;;;;;;2.38;0.52;;;14.30;99.90;;;;;;10389908;28;20165;-64
2021/07/01 06:44:09;;;;;;;1.17;0.50;;;14.30;99.90;;;;;;10386262;28;20100;-64
2021/07/01 06:49:11;;;;;;;0.88;0.40;;;14.30;99.90;;;;;;10390536;28;20099;-64
2021/07/01 06:54:17;;;;;;;0.70;0.40;;;14.30;99.90;;;;;;10386554;28;20041;-63
2021/07/01 06:59:21;;;;;;;1.63;0.40;;;14.30;99.90;;;;;;10404067;28;20057;-63
2021/07/01 07:04:23;;;;;;;0.65;0.50;;;14.30;99.90;;;;;;10388518;28;20053;-63
2021/07/01 07:09:25;;;;;;;1.23;0.40;;;14.40;99.90;;;;;;10391056;28;20062;-63
2021/07/01 07:14:27;;;;;;;0.40;0.30;;;14.40;99.90;;;;;;10390882;28;20076;-63
2021/07/01 07:19:30;;;;;;;1.55;0.40;;;14.50;99.90;;;;;;10388390;28;20041;-64
2021/07/01 07:24:34;;;;;;;0.90;0.50;;;14.70;99.90;;;;;;10388588;28;20069;-63
2021/07/01 07:29:41;;;;;;;1.05;0.47;;;14.80;99.90;;;;;;10391017;28;20045;-64
2021/07/01 07:34:43;;;;;;;0.85;0.52;;;14.90;99.90;;;;;;10386448;28;20412;-64
2021/07/01 07:39:46;;;;;;;3.22;0.63;;;15.00;99.90;;;;;;10389279;28;20175;-63
2021/07/01 07:44:47;;;;;;;4.80;0.60;;;15.00;99.90;;;;;;10389411;28;20131;-63
2021/07/01 07:49:49;;;;;;;1.75;0.90;;;15.20;99.90;;;;;;10383357;28;20081;-63
2021/07/01 07:54:55;;;;;;;2.30;0.75;;;15.20;99.90;;;;;;10393041;28;20049;-63
2021/07/01 07:59:58;;;;;;;1.95;0.70;;;15.40;99.90;;;;;;10387554;28;20053;-63
2021/07/01 08:05:01;;;;;;;4.53;1.20;;;15.60;99.90;;;;;;10387978;28;20102;-64
2021/07/01 08:10:13;;;;;;;2.28;1.00;;;15.80;99.90;;;;;;10390725;28;20071;-63
2021/07/01 08:15:20;;;;;;;4.88;1.30;;;15.90;99.90;;;;;;10385964;28;20127;-63
2021/07/01 08:20:22;;;;;;;;;;;15.80;99.90;;;;;;10386943;28;20055;-63
2021/07/01 08:25:26;;;;;;;4.15;1.52;;;15.60;99.90;;;;;;10389498;28;19933;-64
2021/07/01 08:30:28;;;;;;;4.18;2.70;;;15.50;99.90;;;;;;10384963;28;20053;-64
2021/07/01 08:35:31;;;;;;;4.43;2.17;;;15.30;99.90;;;;;;10387485;28;20111;-64
2021/07/01 08:40:37;;;;;;;2.35;1.75;;;15.30;99.90;;;;;;10388232;28;20060;-64
2021/07/01 08:46:01;;;;;;;2.58;1.50;;;15.40;99.90;;;;;;10382571;28;20057;-63
2021/07/01 08:51:09;;;;;;;2.63;0.88;;;15.50;99.90;;;;;;10337211;28;20045;-63
2021/07/01 08:56:12;;;;;;;1.00;0.40;;;15.60;99.90;;;;;;10388099;28;20045;-63
2021/07/01 09:01:18;;;;;;;1.05;0.70;;;15.60;99.90;;;;;;10379748;28;20052;-63
2021/07/01 09:06:24;;;;;;;2.55;0.60;;;15.50;99.90;;;;;;10381540;28;20455;-63
2021/07/01 09:11:29;;;;;;;0.87;0.40;;;15.40;99.90;;;;;;10379942;28;20135;-63
2021/07/01 09:16:32;;;;;;;1.35;0.43;;;15.50;99.90;;;;;;10383378;28;20134;-63
2021/07/01 09:21:35;;;;;;;2.53;0.40;;;15.50;99.90;;;;;;10377959;28;20041;-63
2021/07/01 09:26:41;;;;;;;1.75;0.43;;;15.70;99.90;;;;;;10388082;28;20053;-63
2021/07/01 09:31:43;;;;;;;1.10;0.30;;;15.80;99.90;;;;;;10385435;28;20557;-64
2021/07/01 09:36:45;;;;;;;0.65;0.20;;;15.90;99.90;;;;;;10388388;28;20061;-64
2021/07/01 09:41:47;;;;;;;2.10;0.20;;;15.90;99.90;;;;;;10377350;28;20432;-63
2021/07/01 09:46:55;;;;;;;0.20;0.20;;;15.90;99.90;;;;;;10383299;28;20041;-64
2021/07/01 09:52:02;;;;;;;0.75;0.20;;;15.80;99.90;;;;;;10383443;28;20060;-64
2021/07/01 09:57:16;;;;;;;0.20;0.20;;;15.80;99.90;;;;;;10385088;28;20506;-65
2021/07/01 10:02:22;;;;;;;0.10;0.10;;;15.70;99.90;;;;;;10387428;28;20049;-65
2021/07/01 10:07:26;;;;;;;3.70;0.10;;;16.00;99.90;;;;;;10394159;28;20077;-64
2021/07/01 10:12:30;;;;;;;0.32;0.20;;;16.00;99.90;;;;;;10392207;28;20288;-64
2021/07/01 10:17:31;;;;;;;0.30;0.20;;;16.10;99.90;;;;;;10395134;28;20057;-64
2021/07/01 10:22:39;;;;;;;0.68;0.20;;;16.10;99.90;;;;;;10394282;28;21150;-64
2021/07/01 10:27:42;;;;;;;0.80;0.32;;;15.70;99.90;;;;;;10392927;28;20049;-63
2021/07/01 10:32:49;;;;;;;2.15;0.60;;;15.50;99.90;;;;;;10395656;28;20077;-63
2021/07/01 10:38:03;;;;;;;1.67;1.00;;;15.50;99.90;;;;;;10384889;28;20061;-63
2021/07/01 10:43:06;;;;;;;3.28;1.35;;;15.60;99.90;;;;;;10393339;28;20444;-63
2021/07/01 10:48:13;;;;;;;4.07;1.20;;;15.70;99.90;;;;;;10391090;28;20087;-63
2021/07/01 10:53:30;;;;;;;4.25;2.08;;;15.70;99.90;;;;;;10389032;28;20057;-63
2021/07/01 10:58:33;;;;;;;4.35;1.42;;;15.90;99.90;;;;;;10389006;28;20119;-64
2021/07/01 11:04:23;;;;;;;3.90;1.85;;;15.90;99.90;;;;;;10387883;28;20049;-64
2021/07/01 11:09:25;;;;;;;3.30;2.17;;;16.20;99.90;;;;;;10321834;28;20049;-63
2021/07/01 11:14:40;;;;;;;3.60;1.90;;;16.30;99.90;;;;;;10387374;28;20038;-64
2021/07/01 11:19:45;;;;;;;3.30;1.98;;;16.30;99.90;;;;;;10386201;28;20496;-65
2021/07/01 11:24:47;;;;;;;6.28;2.47;;;16.40;99.90;;;;;;10390626;28;20076;-65
2021/07/01 11:29:48;;;;;;;5.32;2.70;;;16.40;99.90;;;;;;10391692;28;20104;-64
2021/07/01 11:34:52;;;;;;;7.00;2.03;;;16.40;99.90;;;;;;10384815;28;20069;-64
2021/07/01 11:39:54;;;;;;;6.15;2.60;;;16.30;99.90;;;;;;10389738;28;20210;-65
2021/07/01 11:44:56;;;;;;;3.97;2.47;;;15.90;99.90;;;;;;10389758;28;20057;-65
2021/07/01 11:49:58;;;;;;;4.93;2.33;;;15.70;99.90;;;;;;10387322;28;20385;-65
2021/07/01 11:55:00;;;;;;;5.43;2.10;;;15.80;99.90;;;;;;10386572;28;20570;-64
2021/07/01 12:00:03;;;;;;;5.13;2.10;;;15.90;99.90;;;;;;10386358;28;20061;-64
2021/07/01 12:05:07;;;;;;;4.30;2.40;;;16.00;99.90;;;;;;10386801;28;20093;-64
2021/07/01 12:10:09;;;;;;;3.85;2.25;;;16.10;99.90;;;;;;10385714;28;20048;-63
2021/07/01 12:15:13;;;;;;;3.78;1.90;;;16.20;99.90;;;;;;10385765;28;20484;-62
2021/07/01 12:20:36;;;;;;;2.67;1.58;;;16.30;99.90;;;;;;10387464;28;20061;-64
2021/07/01 12:25:37;;;;;;;4.78;2.35;;;16.20;99.90;;;;;;10385705;28;20111;-64
2021/07/01 12:31:00;;;;;;;2.95;1.52;;;16.20;99.90;;;;;;10387396;28;20411;-64
2021/07/01 12:36:07;;;;;;;3.45;1.80;;;16.40;99.90;;;;;;10339445;28;20136;-64
2021/07/01 12:41:11;;;;;;;3.15;1.45;;;16.50;99.90;;;;;;10384592;28;20049;-62
2021/07/01 12:46:32;;;;;;;3.13;1.95;;;16.70;99.90;;;;;;10383829;28;20594;-63
2021/07/01 12:51:53;;;;;;;6.47;2.25;;;16.70;99.90;;;;;;10386130;28;20148;-63
2021/07/01 12:56:54;;;;;;;4.82;1.63;;;16.70;99.90;;;;;;10337108;28;20104;-63
2021/07/01 13:02:12;;;;;;;3.97;1.95;;;16.60;99.90;;;;;;10382391;28;20073;-63
2021/07/01 13:07:17;;;;;;;2.55;1.75;;;16.60;99.90;;;;;;10384818;28;20115;-65
2021/07/01 13:12:26;;;;;;;4.00;1.98;;;16.50;99.90;;;;;;10386124;28;20070;-64
2021/07/01 13:17:30;;;;;;;2.95;1.90;;;16.50;99.90;;;;;;10384571;28;20085;-64
2021/07/01 13:22:38;;;;;;;4.43;1.98;;;16.50;99.90;;;;;;10386014;28;20056;-64
2021/07/01 13:27:43;;;;;;;3.10;1.65;;;16.50;99.90;;;;;;10383379;28;20076;-64
2021/07/01 13:32:49;;;;;;;5.22;2.03;;;16.50;99.90;;;;;;10384171;28;20057;-63
2021/07/01 13:37:54;;;;;;;4.40;1.92;;;16.40;99.90;;;;;;10388748;28;20103;-64
2021/07/01 13:43:04;;;;;;;4.75;1.95;;;16.50;99.90;;;;;;10393427;28;20081;-60
2021/07/01 13:48:20;;;;;;;3.70;1.73;;;16.80;99.90;;;;;;10396856;28;20050;-62
2021/07/01 13:53:24;;;;;;;21.40;11.93;;;17.10;99.90;;;;;;10388851;28;20127;-61
2021/07/01 13:58:28;;;;;;;7.25;4.07;;;17.30;99.90;;;;;;10395360;28;20103;-62
2021/07/01 14:03:35;;;;;;;4.40;2.40;;;17.40;99.90;;;;;;10393645;28;20042;-62
2021/07/01 14:08:47;;;;;;;5.18;1.45;;;17.60;99.90;;;;;;10391721;28;20542;-61
2021/07/01 14:13:49;;;;;;;6.10;1.33;;;17.90;99.90;;;;;;10389749;28;20095;-61
2021/07/01 14:18:55;;;;;;;3.60;1.60;;;17.70;99.90;;;;;;10392453;28;20049;-61
2021/07/01 14:24:09;;;;;;;3.90;1.60;;;17.30;99.90;;;;;;10389811;28;20057;-61
2021/07/01 14:29:11;;;;;;;2.90;1.17;;;17.10;99.90;;;;;;10389522;28;20056;-61
2021/07/01 14:34:13;;;;;;;4.18;2.13;;;16.90;99.90;;;;;;10390387;28;20045;-60
2021/07/01 14:39:21;;;;;;;3.15;1.25;;;17.00;99.90;;;;;;10388191;28;20927;-65
2021/07/01 14:44:23;;;;;;;1.63;1.02;;;17.30;99.90;;;;;;10386406;28;20397;-59
2021/07/01 14:49:35;;;;;;;4.07;1.33;;;17.10;99.90;;;;;;10385443;28;20073;-60
2021/07/01 14:54:44;;;;;;;3.63;1.50;;;17.20;99.90;;;;;;10388622;28;20126;-60
2021/07/01 14:59:50;;;;;;;2.28;1.15;;;17.10;99.90;;;;;;10386741;28;20041;-60
2021/07/01 15:05:06;;;;;;;4.35;1.77;;;16.90;99.90;;;;;;10387534;28;20107;-60
2021/07/01 15:10:21;;;;;;;5.57;1.90;;;17.00;99.90;;;;;;10386152;28;20041;-60
2021/07/01 15:15:25;;;;;;;5.75;1.75;;;17.10;99.90;;;;;;10342694;28;20127;-60
2021/07/01 15:20:27;;;;;;;4.72;2.25;;;17.10;99.90;;;;;;10387242;28;20103;-60
2021/07/01 15:25:29;;;;;;;4.97;2.17;;;17.00;99.90;;;;;;10388858;28;20046;-60
2021/07/01 15:30:30;;;;;;;4.30;1.98;;;17.00;99.90;;;;;;10388882;28;20111;-60
2021/07/01 15:35:32;;;;;;;9.57;2.10;;;17.00;99.90;;;;;;10387761;28;21055;-60
2021/07/01 15:40:34;;;;;;;4.40;1.98;;;17.10;99.90;;;;;;10386577;28;20131;-60
2021/07/01 15:45:35;;;;;;;16.25;2.33;;;17.10;99.90;;;;;;10382676;28;20080;-60
2021/07/01 15:50:38;;;;;;;5.18;2.17;;;17.10;99.90;;;;;;10386171;28;20096;-60
2021/07/01 15:55:39;;;;;;;4.72;1.83;;;17.10;99.90;;;;;;10385691;28;20615;-60
2021/07/01 16:00:46;;;;;;;5.38;2.25;;;17.10;99.90;;;;;;10387105;28;20049;-60
2021/07/01 16:05:48;;;;;;;;;;;17.00;99.90;;;;;;10385010;28;20053;-60
2021/07/01 16:10:51;;;;;;;5.53;2.38;;;16.90;99.90;;;;;;10385577;28;19975;-60
2021/07/01 16:15:53;;;;;;;3.42;1.70;;;16.90;99.90;;;;;;10384999;28;20042;-61
2021/07/01 16:20:56;;;;;;;3.55;1.88;;;16.70;99.90;;;;;;10387057;28;20054;-60
2021/07/01 16:25:58;;;;;;;3.85;1.98;;;16.80;99.90;;;;;;10385846;28;20073;-60
2021/07/01 16:31:01;;;;;;;4.30;1.73;;;16.80;99.90;;;;;;10385933;28;20041;-60
2021/07/01 16:36:03;;;;;;;3.60;1.70;;;16.70;99.90;;;;;;10383629;28;20053;-60
2021/07/01 16:41:09;;;;;;;4.78;2.05;;;16.70;99.90;;;;;;10380521;28;20512;-60
2021/07/01 16:46:15;;;;;;;5.25;2.35;;;16.80;99.90;;;;;;10386002;28;20072;-60
2021/07/01 16:51:20;;;;;;;3.72;1.75;;;16.70;99.90;;;;;;10382107;28;20053;-59
2021/07/01 16:56:24;;;;;;;2.53;1.30;;;16.60;99.90;;;;;;10386709;28;20053;-59
2021/07/01 17:01:26;;;;;;;7.55;1.60;;;16.60;99.90;;;;;;10383382;28;20199;-59
2021/07/01 17:06:28;;;;;;;3.45;2.55;;;16.50;99.90;;;;;;10385021;28;20045;-59
2021/07/01 17:11:30;;;;;;;3.08;1.45;;;16.50;99.90;;;;;;10385636;28;20046;-59
2021/07/01 17:16:32;;;;;;;3.38;2.40;;;16.50;99.90;;;;;;10399507;28;20060;-59
2021/07/01 17:21:38;;;;;;;5.15;1.88;;;16.50;99.90;;;;;;10383067;28;20045;-57
2021/07/01 17:26:40;;;;;;;2.83;1.75;;;16.60;99.90;;;;;;10383743;28;20500;-59
2021/07/01 17:31:42;;;;;;;3.60;1.83;;;16.50;99.90;;;;;;10382718;28;20049;-59
2021/07/01 17:36:44;;;;;;;3.22;1.77;;;16.60;99.90;;;;;;10382380;28;20085;-59
2021/07/01 17:41:47;;;;;;;3.67;1.98;;;16.50;99.90;;;;;;10382676;28;20049;-57
2021/07/01 17:46:51;;;;;;;4.97;1.65;;;16.60;99.90;;;;;;10383158;28;20077;-57
2021/07/01 17:51:54;;;;;;;5.55;1.70;;;16.50;99.90;;;;;;10382171;28;20535;-58
2021/07/01 17:56:56;;;;;;;2.70;1.58;;;16.40;99.90;;;;;;10386180;28;20041;-58
2021/07/01 18:01:58;;;;;;;6.35;1.50;;;16.40;99.90;;;;;;10382541;28;20049;-58
2021/07/01 18:06:59;;;;;;;4.78;1.58;;;16.40;99.90;;;;;;10385057;28;20046;-59
2021/07/01 18:12:01;;;;;;;4.95;2.80;;;16.40;99.90;;;;;;10384612;28;20104;-58
2021/07/01 18:17:03;;;;;;;2.85;1.55;;;16.40;99.90;;;;;;10381831;28;21741;-60
2021/07/01 18:22:05;;;;;;;7.55;2.40;;;16.40;99.90;;;;;;10401109;28;20378;-58
2021/07/01 18:27:07;;;;;;;6.45;2.20;;;16.30;99.90;;;;;;10391120;28;20118;-58
2021/07/01 18:32:09;;;;;;;6.55;2.40;;;16.20;99.90;;;;;;10386721;28;20107;-58
2021/07/01 18:37:11;;;;;;;4.90;1.85;;;16.20;99.90;;;;;;10390042;28;20051;-57
2021/07/01 18:42:13;;;;;;;4.00;2.17;;;16.20;99.90;;;;;;10390347;28;20049;-58
2021/07/01 18:47:15;;;;;;;6.93;3.47;;;16.20;99.90;;;;;;10388000;28;20053;-59
2021/07/01 18:52:17;;;;;;;6.43;2.58;;;16.30;99.90;;;;;;10390174;28;20053;-57
2021/07/01 18:57:19;;;;;;;6.15;2.80;;;16.30;99.90;;;;;;10388997;28;20155;-57
2021/07/01 19:02:21;;;;;;;6.07;1.95;;;16.20;99.90;;;;;;10386397;28;20111;-59
2021/07/01 19:07:25;;;;;;;8.85;3.17;;;16.10;99.90;;;;;;10390430;28;20045;-58
2021/07/01 19:12:26;;;;;;;4.50;2.15;;;16.10;99.90;;;;;;10389002;28;20060;-58
2021/07/01 19:17:28;;;;;;;7.68;2.53;;;16.00;99.90;;;;;;10386680;28;20464;-59
2021/07/01 19:22:33;;;;;;;4.05;2.55;;;15.90;99.90;;;;;;10388396;28;20076;-59
2021/07/01 19:27:35;;;;;;;6.95;2.65;;;16.00;99.90;;;;;;10389620;28;20117;-59
2021/07/01 19:32:37;;;;;;;7.15;2.72;;;16.00;99.90;;;;;;10390516;28;20123;-59
2021/07/01 19:37:44;;;;;;;6.93;3.08;;;16.00;99.90;;;;;;10391904;28;20037;-60
2021/07/01 19:42:47;;;;;;;7.70;3.27;;;16.00;99.90;;;;;;10386602;28;20046;-60
2021/07/01 19:47:49;;;;;;;7.95;2.63;;;16.00;99.90;;;;;;10384998;28;20315;-60
2021/07/01 19:52:51;;;;;;;7.45;3.03;;;15.90;99.90;;;;;;10386739;28;20099;-59
2021/07/01 19:57:55;;;;;;;9.90;3.67;;;16.00;99.90;;;;;;10385657;28;20665;-60
2021/07/01 20:02:57;;;;;;;6.63;3.05;;;16.00;99.90;;;;;;10385027;28;20057;-60
2021/07/01 20:07:59;;;;;;;5.25;2.65;;;16.00;99.90;;;;;;10389918;28;20042;-59
2021/07/01 20:13:00;;;;;;;9.05;2.97;;;16.00;99.90;;;;;;10386977;28;20140;-60
2021/07/01 20:18:03;;;;;;;6.93;3.00;;;16.00;99.90;;;;;;10387288;28;20050;-59
2021/07/01 20:23:06;;;;;;;4.28;2.65;;;15.90;99.90;;;;;;10402655;28;20077;-59
2021/07/01 20:28:08;;;;;;;6.40;2.78;;;15.70;99.90;;;;;;10385106;28;20103;-60
2021/07/01 20:33:10;;;;;;;5.82;2.22;;;15.80;99.90;;;;;;10386233;28;20436;-60
2021/07/01 20:38:12;;;;;;;5.75;2.97;;;15.80;99.90;;;;;;10384995;28;20464;-59
2021/07/01 20:43:15;;;;;;;4.57;2.30;;;15.80;99.90;;;;;;10384612;28;20147;-59
2021/07/01 20:48:17;;;;;;;8.50;2.40;;;15.80;99.90;;;;;;10386580;28;20088;-59
2021/07/01 20:53:21;;;;;;;5.97;2.78;;;15.90;99.90;;;;;;10383739;28;20111;-59
2021/07/01 20:58:23;;;;;;;8.15;2.83;;;15.90;99.90;;;;;;10383272;28;20111;-59
2021/07/01 21:03:25;;;;;;;8.65;3.50;;;15.90;99.90;;;;;;10383072;28;20155;-60
2021/07/01 21:08:29;;;;;;;4.07;2.47;;;15.90;99.90;;;;;;10382432;28;20053;-59
2021/07/01 21:13:33;;;;;;;4.50;2.55;;;15.90;99.90;;;;;;10384842;28;20562;-59
2021/07/01 21:18:40;;;;;;;3.72;2.55;;;15.90;99.90;;;;;;10385037;28;20064;-59
2021/07/01 21:23:41;;;;;;;5.50;2.67;;;15.90;99.90;;;;;;10385232;28;20049;-60
2021/07/01 21:28:45;;;;;;;6.28;3.13;;;15.80;99.90;;;;;;10381919;28;20111;-60
2021/07/01 21:33:47;;;;;;;7.05;3.28;;;15.80;99.90;;;;;;10384116;28;20054;-60
2021/07/01 21:38:50;;;;;;;7.82;2.70;;;15.80;99.90;;;;;;10386095;28;20095;-60
2021/07/01 21:43:54;;;;;;;8.20;2.45;;;15.80;99.90;;;;;;10386773;28;20909;-61
2021/07/01 21:48:59;;;;;;;5.50;2.67;;;15.90;99.90;;;;;;10381644;28;20046;-61
2021/07/01 21:54:01;;;;;;;5.22;2.83;;;15.80;99.90;;;;;;10385781;28;20512;-61
2021/07/01 21:59:03;;;;;;;8.32;3.08;;;15.80;99.90;;;;;;10390008;28;20439;-62
2021/07/01 22:04:06;;;;;;;10.02;3.67;;;15.80;99.90;;;;;;10388775;28;20092;-61
2021/07/01 22:09:08;;;;;;;9.00;3.60;;;15.70;99.90;;;;;;10385961;28;20089;-61
2021/07/01 22:14:10;;;;;;;7.93;3.15;;;15.70;99.90;;;;;;10391232;28;20049;-61
2021/07/01 22:19:56;;;;;;;10.80;3.45;;;15.60;99.90;;;;;;10390284;28;20045;-60
2021/07/01 22:24:38;;;;;;;6.68;2.65;;;15.60;99.90;;;;;;10347861;28;20053;-60
2021/07/01 22:29:43;;;;;;;7.70;3.05;;;15.40;99.90;;;;;;10389278;28;20128;-60
2021/07/01 22:34:46;;;;;;;8.05;3.03;;;15.40;99.90;;;;;;10391181;28;20099;-60
2021/07/01 22:39:48;;;;;;;9.52;3.42;;;15.40;99.90;;;;;;10390874;28;20460;-60
2021/07/01 22:44:50;;;;;;;9.98;3.55;;;15.30;99.90;;;;;;10386466;28;20046;-60
2021/07/01 22:49:52;;;;;;;8.00;3.85;;;15.20;99.90;;;;;;10391462;28;20069;-60
2021/07/01 22:54:54;;;;;;;6.78;3.65;;;15.10;99.90;;;;;;10391174;28;20475;-60
2021/07/01 22:59:57;;;;;;;11.63;3.80;;;15.10;99.90;;;;;;10389899;28;20480;-59
2021/07/01 23:04:58;;;;;;;9.00;3.72;;;15.20;99.90;;;;;;10390232;28;20041;-61
2021/07/01 23:10:00;;;;;;;9.55;3.55;;;15.10;99.90;;;;;;10387889;28;20080;-61
2021/07/01 23:15:07;;;;;;;6.13;3.55;;;15.10;99.90;;;;;;10387096;28;20049;-61
2021/07/01 23:20:09;;;;;;;5.70;3.45;;;15.10;99.90;;;;;;10390443;28;20133;-61
2021/07/01 23:25:11;;;;;;;7.75;3.22;;;15.00;99.90;;;;;;10389667;28;20056;-61
2021/07/01 23:30:13;;;;;;;6.63;3.92;;;15.00;99.90;;;;;;10389049;28;20053;-61
2021/07/01 23:35:15;;;;;;;6.47;4.35;;;15.00;99.90;;;;;;10387311;28;20057;-61
2021/07/01 23:40:17;;;;;;;7.53;4.40;;;15.00;99.90;;;;;;10389205;28;20053;-61
2021/07/01 23:45:18;;;;;;;8.13;4.10;;;14.90;99.90;;;;;;10389145;28;20080;-61
2021/07/01 23:50:20;;;;;;;8.27;4.03;;;14.90;99.90;;;;;;10385418;28;20054;-61
2021/07/01 23:55:22;;;;;;;8.32;5.00;;;14.80;99.90;;;;;;10386837;28;20057;-60
